createdAt,value
2023-01-21T00:02:16.762Z,99.91
2023-01-21T00:04:47.112Z,99.62
2023-01-21T00:07:16.876Z,99.65
2023-01-21T00:09:46.650Z,99.63
2023-01-21T00:12:17.559Z,99.60
2023-01-21T00:14:49.920Z,99.43
2023-01-21T00:17:19.711Z,99.53
2023-01-21T00:19:49.517Z,99.54
2023-01-21T00:22:19.305Z,99.41
2023-01-21T00:24:49.064Z,99.30
2023-01-21T00:27:18.813Z,99.37
2023-01-21T00:29:51.251Z,99.28
2023-01-21T00:32:21.020Z,99.22
2023-01-21T00:34:50.774Z,99.21
2023-01-21T00:37:20.727Z,99.11
2023-01-21T00:39:50.492Z,99.24
2023-01-21T00:42:20.258Z,99.18
2023-01-21T00:44:52.698Z,99.20
2023-01-21T00:47:22.765Z,99.06
2023-01-21T00:49:52.541Z,99.00
2023-01-21T00:52:22.290Z,99.01
2023-01-21T00:54:52.053Z,98.93
2023-01-21T00:57:21.826Z,99.02
2023-01-21T00:59:54.247Z,98.82
2023-01-21T01:02:24.113Z,98.86
2023-01-21T01:04:53.896Z,98.85
2023-01-21T01:07:23.642Z,98.82
2023-01-21T01:09:53.408Z,98.75
2023-01-21T01:12:23.149Z,98.70
2023-01-21T01:14:55.549Z,98.73
2023-01-21T01:17:25.338Z,98.59
2023-01-21T01:19:55.979Z,98.66
2023-01-21T01:22:25.747Z,98.70
2023-01-21T01:24:55.526Z,98.54
2023-01-21T01:27:25.397Z,98.54
2023-01-21T01:29:57.732Z,98.63
2023-01-21T01:32:27.591Z,98.50
2023-01-21T01:34:57.328Z,98.57
2023-01-21T01:37:27.079Z,98.60
2023-01-21T01:39:56.900Z,98.56
2023-01-21T01:42:26.762Z,98.58
2023-01-21T01:45:05.847Z,98.53
2023-01-21T01:47:42.628Z,98.64
2023-01-21T01:50:17.760Z,98.49
2023-01-21T01:52:48.650Z,98.48
2023-01-21T01:55:18.643Z,98.42
2023-01-21T01:57:53.054Z,98.40
2023-01-21T02:00:27.697Z,98.53
2023-01-21T02:03:10.134Z,98.39
2023-01-21T02:05:41.143Z,98.47
2023-01-21T02:08:11.933Z,98.31
2023-01-21T02:10:41.754Z,98.46
2023-01-21T02:13:12.175Z,98.42
2023-01-21T02:15:54.908Z,98.45
2023-01-21T02:18:34.848Z,98.41
2023-01-21T02:21:31.590Z,98.42
2023-01-21T02:24:31.667Z,98.38
2023-01-21T02:27:31.698Z,98.52
2023-01-21T02:30:19.211Z,98.60
2023-01-21T02:33:14.687Z,98.54
2023-01-21T02:35:49.295Z,98.65
2023-01-21T02:38:29.119Z,98.63
2023-01-21T02:41:08.423Z,98.65
2023-01-21T02:43:49.949Z,98.59
2023-01-21T02:46:25.438Z,98.65
2023-01-21T02:49:02.073Z,98.66
2023-01-21T02:51:31.874Z,98.56
2023-01-21T02:54:01.634Z,98.61
2023-01-21T02:56:31.446Z,98.75
2023-01-21T02:59:08.483Z,98.80
2023-01-21T03:01:51.284Z,98.73
2023-01-21T03:04:43.684Z,98.69
2023-01-21T03:07:22.725Z,98.61
2023-01-21T03:09:52.587Z,98.79
2023-01-21T03:12:36.178Z,98.76
2023-01-21T03:15:22.587Z,98.87
2023-01-21T03:17:57.505Z,98.88
2023-01-21T03:20:37.055Z,98.84
2023-01-21T03:23:11.391Z,98.76
2023-01-21T03:25:43.113Z,98.87
2023-01-21T03:28:18.730Z,98.89
2023-01-21T03:30:53.123Z,98.99
2023-01-21T03:33:24.796Z,98.81
2023-01-21T03:36:00.798Z,98.72
2023-01-21T03:38:35.200Z,98.97
2023-01-21T03:41:11.135Z,99.00
2023-01-21T03:43:42.021Z,99.15
2023-01-21T03:46:18.082Z,99.04
2023-01-21T03:48:53.123Z,99.25
2023-01-21T03:51:32.233Z,99.34
2023-01-21T03:54:03.442Z,99.34
2023-01-21T03:56:33.569Z,99.52
2023-01-21T03:59:03.388Z,99.59
2023-01-21T04:01:33.182Z,99.63
2023-01-21T04:04:02.945Z,99.82
2023-01-21T04:06:36.898Z,99.86
2023-01-21T04:09:07.025Z,99.98
2023-01-21T04:11:37.280Z,100.00
2023-01-21T04:14:07.182Z,100.00
2023-01-21T04:16:37.028Z,100.00
2023-01-21T04:19:07.074Z,100.00
2023-01-21T04:21:39.450Z,100.00
2023-01-21T04:24:10.133Z,100.00
2023-01-21T04:26:39.872Z,100.00
2023-01-21T04:29:09.614Z,100.00
2023-01-21T04:31:39.620Z,100.00
2023-01-21T04:34:09.474Z,100.00
2023-01-21T04:36:41.860Z,100.00
2023-01-21T04:39:11.642Z,100.00
2023-01-21T04:41:41.517Z,100.00
2023-01-21T04:44:11.355Z,100.00
2023-01-21T04:46:41.098Z,100.00
2023-01-21T04:49:11.004Z,100.00
2023-01-21T04:51:46.213Z,100.00
2023-01-21T04:54:16.100Z,100.00
2023-01-21T04:56:45.931Z,100.00
2023-01-21T04:59:15.811Z,100.00
2023-01-21T05:01:45.599Z,100.00
2023-01-21T05:04:15.414Z,100.00
2023-01-21T05:06:47.760Z,100.00
2023-01-21T05:09:17.538Z,100.00
2023-01-21T05:11:47.384Z,100.00
2023-01-21T05:14:17.156Z,100.00
2023-01-21T05:16:46.962Z,100.00
2023-01-21T05:19:16.767Z,100.00
2023-01-21T05:21:49.123Z,100.00
2023-01-21T05:24:18.982Z,100.00
2023-01-21T05:26:49.822Z,100.00
2023-01-21T05:29:19.936Z,100.00
2023-01-21T05:31:49.726Z,100.00
2023-01-21T05:34:19.506Z,100.00
2023-01-21T05:36:51.989Z,100.00
2023-01-21T05:39:21.743Z,100.00
2023-01-21T05:41:51.503Z,100.00
2023-01-21T05:44:21.254Z,100.00
2023-01-21T05:46:50.994Z,100.00
2023-01-21T05:49:20.944Z,100.00
2023-01-21T05:51:53.302Z,100.00
2023-01-21T05:54:23.114Z,100.00
2023-01-21T05:56:52.896Z,100.00
2023-01-21T05:59:22.675Z,100.00
2023-01-21T06:01:52.495Z,100.00
2023-01-21T06:04:28.450Z,100.00
2023-01-21T06:07:00.886Z,100.00
2023-01-21T06:09:30.653Z,100.00
2023-01-21T06:12:00.419Z,100.00
2023-01-21T06:14:30.193Z,100.00
2023-01-21T06:16:59.950Z,100.00
2023-01-21T06:19:29.699Z,100.00
2023-01-21T06:22:02.114Z,100.00
2023-01-21T06:24:31.916Z,100.00
2023-01-21T06:27:01.687Z,100.00
2023-01-21T06:29:31.466Z,100.00
2023-01-21T06:32:01.427Z,100.00
2023-01-21T06:34:31.312Z,100.00
2023-01-21T06:37:03.686Z,100.00
2023-01-21T06:39:33.463Z,100.00
2023-01-21T06:42:03.287Z,100.00
2023-01-21T06:44:33.229Z,100.00
2023-01-21T06:47:03.139Z,100.00
2023-01-21T06:49:32.971Z,100.00
2023-01-21T06:52:05.372Z,100.00
2023-01-21T06:54:35.821Z,100.00
2023-01-21T06:57:05.866Z,100.00
2023-01-21T06:59:35.647Z,100.00
2023-01-21T07:02:05.427Z,100.00
2023-01-21T07:04:35.224Z,100.00
2023-01-21T07:07:07.667Z,100.00
2023-01-21T07:09:37.443Z,100.00
2023-01-21T07:12:07.602Z,100.00
2023-01-21T07:14:37.427Z,100.00
2023-01-21T07:17:07.529Z,100.00
2023-01-21T07:19:37.424Z,100.00
2023-01-21T07:22:10.568Z,100.00
2023-01-21T07:24:40.515Z,100.00
2023-01-21T07:27:10.904Z,100.00
2023-01-21T07:29:42.846Z,100.00
2023-01-21T07:32:12.622Z,100.00
2023-01-21T07:34:42.429Z,100.00
2023-01-21T07:37:14.819Z,100.00
2023-01-21T07:39:44.626Z,100.00
2023-01-21T07:42:14.839Z,100.00
2023-01-21T07:44:44.660Z,100.00
2023-01-21T07:47:14.735Z,100.00
2023-01-21T07:49:44.575Z,100.00
2023-01-21T07:52:17.085Z,100.00
2023-01-21T07:54:46.857Z,100.00
2023-01-21T07:57:17.131Z,100.00
2023-01-21T07:59:46.880Z,100.00
2023-01-21T08:02:16.737Z,100.00
2023-01-21T08:04:46.631Z,100.00
2023-01-21T08:07:19.237Z,99.82
2023-01-21T08:09:49.082Z,100.00
2023-01-21T08:12:18.965Z,99.88
2023-01-21T08:14:48.951Z,100.00
2023-01-21T08:17:18.815Z,100.00
2023-01-21T08:19:48.906Z,100.00
2023-01-21T08:22:23.326Z,100.00
2023-01-21T08:24:53.500Z,100.00
2023-01-21T08:27:23.293Z,100.00
2023-01-21T08:30:28.211Z,100.00
2023-01-21T08:32:58.013Z,100.00
2023-01-21T08:35:27.913Z,100.00
2023-01-21T08:38:00.543Z,100.00
2023-01-21T08:40:30.400Z,100.00
2023-01-21T08:43:03.513Z,100.00
2023-01-21T08:45:33.745Z,100.00
2023-01-21T08:48:05.782Z,100.00
2023-01-21T08:50:35.618Z,100.00
2023-01-21T08:53:08.007Z,100.00
2023-01-21T08:55:37.802Z,100.00
2023-01-21T08:58:07.736Z,100.00
2023-01-21T09:00:38.330Z,100.00
2023-01-21T09:03:12.272Z,100.00
2023-01-21T09:05:42.199Z,100.00
2023-01-21T09:08:14.953Z,100.00
2023-01-21T09:10:57.133Z,100.00
2023-01-21T09:13:29.231Z,100.00
2023-01-21T09:15:59.417Z,100.00
2023-01-21T09:18:29.570Z,100.00
2023-01-21T09:21:03.661Z,100.00
2023-01-21T09:23:37.196Z,100.00
2023-01-21T09:26:09.598Z,100.00
2023-01-21T09:28:42.449Z,100.00
2023-01-21T09:31:14.606Z,100.00
2023-01-21T09:33:46.031Z,100.00
2023-01-21T09:36:19.196Z,100.00
2023-01-21T09:38:52.615Z,100.00
2023-01-21T09:41:28.604Z,100.00
2023-01-21T09:44:16.462Z,100.00
2023-01-21T09:46:52.127Z,100.00
2023-01-21T09:49:25.459Z,100.00
2023-01-21T09:52:00.302Z,100.00
2023-01-21T09:54:35.645Z,100.00
2023-01-21T09:57:31.694Z,100.00
2023-01-21T10:00:14.541Z,100.00
2023-01-21T10:02:52.177Z,100.00
2023-01-21T10:06:00.665Z,100.00
2023-01-21T10:08:36.898Z,100.00
2023-01-21T10:11:26.270Z,100.00
2023-01-21T10:14:09.215Z,100.00
2023-01-21T10:16:48.476Z,100.00
2023-01-21T10:19:22.629Z,100.00
2023-01-21T10:21:57.505Z,100.00
2023-01-21T10:24:30.493Z,100.00
2023-01-21T10:27:03.583Z,100.00
2023-01-21T10:29:34.211Z,100.00
2023-01-21T10:32:08.701Z,100.00
2023-01-21T10:34:42.776Z,100.00
2023-01-21T10:37:22.812Z,100.00
2023-01-21T10:40:01.730Z,100.00
2023-01-21T10:42:53.038Z,100.00
2023-01-21T10:45:31.395Z,100.00
2023-01-21T10:48:08.912Z,100.00
2023-01-21T10:50:50.869Z,100.00
2023-01-21T10:53:27.751Z,100.00
2023-01-21T10:56:20.373Z,100.00
2023-01-21T10:58:56.889Z,100.00
2023-01-21T11:01:31.129Z,100.00
2023-01-21T11:04:03.505Z,100.00
2023-01-21T11:06:35.689Z,100.00
2023-01-21T11:09:08.250Z,100.00
2023-01-21T11:11:40.657Z,100.00
2023-01-21T11:14:13.181Z,100.00
2023-01-21T11:16:46.305Z,100.00
2023-01-21T11:19:17.923Z,100.00
2023-01-21T11:22:02.789Z,100.00
2023-01-21T11:24:33.798Z,100.00
2023-01-21T11:27:04.679Z,100.00
2023-01-21T11:29:44.276Z,100.00
2023-01-21T11:32:21.270Z,100.00
2023-01-21T11:34:52.645Z,100.00
2023-01-21T11:37:26.779Z,100.00
2023-01-21T11:39:59.823Z,100.00
2023-01-21T11:42:29.903Z,100.00
2023-01-21T11:45:04.487Z,100.00
2023-01-21T11:47:40.658Z,100.00
2023-01-21T11:50:17.380Z,100.00
2023-01-21T11:52:47.895Z,100.00
2023-01-21T11:55:24.180Z,100.00
2023-01-21T11:57:56.712Z,100.00
2023-01-21T12:00:30.891Z,100.00
2023-01-21T12:03:04.774Z,100.00
2023-01-21T12:05:37.062Z,100.00
2023-01-21T12:08:09.560Z,100.00
2023-01-21T12:10:45.215Z,100.00
2023-01-21T12:13:21.581Z,100.00
2023-01-21T12:16:12.208Z,100.00
2023-01-21T12:19:07.810Z,100.00
2023-01-21T12:21:56.324Z,100.00
2023-01-21T12:24:40.896Z,100.00
2023-01-21T12:27:22.639Z,99.98
2023-01-21T12:30:05.210Z,100.00
2023-01-21T12:32:42.111Z,99.79
2023-01-21T12:35:16.884Z,99.63
2023-01-21T12:37:51.748Z,99.44
2023-01-21T12:40:27.196Z,99.29
2023-01-21T12:43:02.995Z,99.11
2023-01-21T12:45:40.957Z,99.07
2023-01-21T12:48:20.404Z,99.08
2023-01-21T12:50:55.630Z,98.89
2023-01-21T12:53:35.928Z,98.99
2023-01-21T12:56:18.220Z,98.70
2023-01-21T12:58:53.730Z,98.51
2023-01-21T13:01:37.847Z,98.52
2023-01-21T13:04:25.501Z,98.40
2023-01-21T13:07:03.598Z,98.21
2023-01-21T13:09:40.956Z,98.10
2023-01-21T13:12:18.168Z,97.86
2023-01-21T13:14:51.327Z,97.71
2023-01-21T13:17:24.903Z,97.54
2023-01-21T13:19:57.402Z,97.42
2023-01-21T13:22:38.092Z,97.13
2023-01-21T13:25:24.518Z,96.73
2023-01-21T13:28:01.988Z,96.78
2023-01-21T13:30:37.087Z,96.55
2023-01-21T13:33:21.867Z,96.18
2023-01-21T13:36:08.688Z,96.13
2023-01-21T13:38:45.062Z,95.98
2023-01-21T13:41:29.344Z,95.85
2023-01-21T13:44:16.117Z,95.56
2023-01-21T13:46:59.503Z,95.58
2023-01-21T13:49:57.319Z,95.29
2023-01-21T13:52:39.341Z,95.15
2023-01-21T13:55:26.347Z,94.95
2023-01-21T13:58:05.773Z,94.76
2023-01-21T14:00:38.995Z,94.70
2023-01-21T14:03:20.582Z,94.48
2023-01-21T14:05:56.943Z,94.21
2023-01-21T14:08:35.520Z,94.04
2023-01-21T14:11:11.099Z,93.97
2023-01-21T14:14:14.781Z,93.73
2023-01-21T14:17:19.951Z,93.58
2023-01-21T14:20:08.534Z,93.32
2023-01-21T14:22:58.209Z,93.16
2023-01-21T14:25:39.894Z,92.97
2023-01-21T14:28:18.137Z,92.91
2023-01-21T14:30:52.274Z,92.79
2023-01-21T14:33:26.210Z,92.80
2023-01-21T14:36:03.886Z,92.67
2023-01-21T14:38:55.092Z,92.66
2023-01-21T14:41:27.586Z,92.52
2023-01-21T14:43:57.395Z,92.63
2023-01-21T14:46:30.489Z,92.67
2023-01-21T14:49:08.360Z,92.45
2023-01-21T14:51:40.469Z,92.54
2023-01-21T14:54:16.083Z,92.56
2023-01-21T14:57:13.626Z,92.56
2023-01-21T14:59:49.036Z,92.53
2023-01-21T15:02:29.188Z,92.47
2023-01-21T15:05:01.388Z,92.66
2023-01-21T15:07:34.501Z,92.56
2023-01-21T15:10:12.347Z,92.68
2023-01-21T15:12:53.540Z,92.66
2023-01-21T15:15:36.577Z,92.72
2023-01-21T15:18:26.372Z,92.76
2023-01-21T15:20:58.818Z,92.92
2023-01-21T15:23:42.338Z,92.99
2023-01-21T15:26:34.135Z,92.91
2023-01-21T15:29:35.503Z,92.90
2023-01-21T15:32:25.117Z,92.88
2023-01-21T15:34:59.547Z,92.99
2023-01-21T15:37:31.928Z,93.03
2023-01-21T15:40:04.939Z,92.93
2023-01-21T15:42:46.163Z,92.91
2023-01-21T15:45:30.568Z,93.01
2023-01-21T15:48:44.036Z,92.94
2023-01-21T15:51:26.398Z,92.96
2023-01-21T15:54:08.300Z,92.90
2023-01-21T15:56:55.069Z,93.02
2023-01-21T15:59:41.868Z,92.87
2023-01-21T16:02:23.140Z,92.96
2023-01-21T16:05:14.802Z,93.03
2023-01-21T16:07:58.145Z,92.95
2023-01-21T16:10:35.789Z,93.00
2023-01-21T16:13:18.050Z,92.99
2023-01-21T16:16:02.443Z,92.83
2023-01-21T16:18:44.356Z,92.84
2023-01-21T16:21:16.494Z,92.75
2023-01-21T16:23:46.911Z,92.95
2023-01-21T16:26:27.234Z,92.99
2023-01-21T16:28:57.332Z,92.98
2023-01-21T16:31:27.405Z,93.12
2023-01-21T16:33:59.883Z,92.98
2023-01-21T16:36:29.802Z,93.12
2023-01-21T16:39:00.052Z,93.08
2023-01-21T16:41:30.289Z,93.25
2023-01-21T16:44:02.959Z,93.11
2023-01-21T16:46:37.605Z,93.18
2023-01-21T16:49:17.225Z,93.30
2023-01-21T16:51:51.433Z,93.26
2023-01-21T16:54:27.439Z,93.12
2023-01-21T16:57:00.540Z,93.36
2023-01-21T16:59:33.024Z,93.31
2023-01-21T17:02:03.328Z,93.15
2023-01-21T17:04:35.845Z,93.09
2023-01-21T17:07:05.916Z,93.14
2023-01-21T17:09:39.008Z,93.03
2023-01-21T17:12:12.639Z,92.96
2023-01-21T17:14:42.498Z,93.11
2023-01-21T17:17:12.660Z,92.88
2023-01-21T17:19:46.283Z,92.69
2023-01-21T17:22:20.154Z,92.91
2023-01-21T17:25:00.200Z,92.66
2023-01-21T17:27:31.005Z,92.78
2023-01-21T17:30:28.271Z,92.63
2023-01-21T17:32:59.902Z,92.59
2023-01-21T17:35:34.162Z,92.53
2023-01-21T17:38:05.589Z,92.74
2023-01-21T17:40:38.973Z,92.58
2023-01-21T17:43:23.132Z,92.66
2023-01-21T17:45:55.019Z,92.52
2023-01-21T17:48:29.612Z,92.37
2023-01-21T17:51:07.924Z,92.43
2023-01-21T17:53:44.736Z,92.60
2023-01-21T17:56:15.802Z,92.38
2023-01-21T17:58:51.719Z,92.42
2023-01-21T18:01:23.145Z,92.35
2023-01-21T18:03:56.070Z,92.36
2023-01-21T18:06:35.947Z,92.39
2023-01-21T18:09:37.281Z,92.35
2023-01-21T18:12:13.842Z,92.25
2023-01-21T18:14:44.194Z,92.22
2023-01-21T18:17:18.261Z,92.20
2023-01-21T18:19:48.382Z,92.33
2023-01-21T18:22:51.447Z,92.31
2023-01-21T18:26:24.250Z,92.30
2023-01-21T18:28:57.052Z,92.29
2023-01-21T18:31:27.062Z,92.54
2023-01-21T18:33:57.143Z,92.50
2023-01-21T18:36:27.201Z,92.50
2023-01-21T18:38:59.564Z,92.62
2023-01-21T18:41:29.378Z,92.67
2023-01-21T18:43:59.147Z,92.96
2023-01-21T18:46:29.196Z,93.02
2023-01-21T18:48:59.026Z,93.00
2023-01-21T18:51:29.227Z,93.04
2023-01-21T18:54:01.721Z,93.15
2023-01-21T18:56:31.696Z,93.23
2023-01-21T18:59:01.550Z,93.27
2023-01-21T19:01:31.466Z,93.30
2023-01-21T19:04:04.183Z,93.44
2023-01-21T19:06:34.013Z,93.64
2023-01-21T19:09:06.775Z,93.62
2023-01-21T19:11:36.615Z,93.83
2023-01-21T19:14:06.482Z,93.94
2023-01-21T19:16:36.523Z,93.98
2023-01-21T19:19:13.157Z,93.91
2023-01-21T19:21:44.305Z,94.22
2023-01-21T19:24:16.687Z,94.16
2023-01-21T19:26:46.469Z,94.21
2023-01-21T19:29:23.069Z,94.15
2023-01-21T19:31:52.883Z,94.23
2023-01-21T19:34:25.133Z,94.48
2023-01-21T19:36:55.670Z,94.29
2023-01-21T19:39:29.827Z,94.46
2023-01-21T19:42:08.080Z,94.38
2023-01-21T19:44:42.449Z,94.26
2023-01-21T19:47:21.580Z,94.34
2023-01-21T19:49:51.393Z,94.14
2023-01-21T19:52:21.179Z,94.16
2023-01-21T19:54:55.204Z,94.20
2023-01-21T19:57:25.283Z,94.36
2023-01-21T19:59:56.328Z,94.32
2023-01-21T20:02:26.101Z,94.25
2023-01-21T20:04:55.858Z,94.26
2023-01-21T20:07:25.645Z,94.07
2023-01-21T20:09:57.992Z,94.12
2023-01-21T20:12:27.760Z,94.09
2023-01-21T20:14:57.498Z,94.33
2023-01-21T20:17:27.625Z,94.30
2023-01-21T20:19:57.395Z,94.24
2023-01-21T20:22:27.174Z,94.16
2023-01-21T20:24:59.542Z,94.34
2023-01-21T20:27:29.297Z,94.26
2023-01-21T20:30:14.718Z,94.38
2023-01-21T20:32:46.158Z,94.40
2023-01-21T20:35:17.142Z,94.32
2023-01-21T20:37:49.091Z,94.49
2023-01-21T20:40:24.779Z,94.61
2023-01-21T20:42:55.326Z,94.39
2023-01-21T20:45:29.776Z,94.38
2023-01-21T20:48:04.339Z,94.62
2023-01-21T20:50:36.433Z,94.49
2023-01-21T20:53:07.031Z,94.34
2023-01-21T20:55:40.128Z,94.49
2023-01-21T20:58:10.191Z,94.34
2023-01-21T21:00:40.033Z,94.21
2023-01-21T21:03:10.787Z,94.19
2023-01-21T21:05:40.960Z,94.21
2023-01-21T21:08:15.047Z,94.12
2023-01-21T21:10:48.072Z,93.97
2023-01-21T21:13:17.971Z,93.99
2023-01-21T21:15:48.009Z,93.79
2023-01-21T21:18:17.951Z,93.70
2023-01-21T21:20:47.798Z,93.63
2023-01-21T21:23:17.829Z,93.72
2023-01-21T21:25:51.121Z,93.67
2023-01-21T21:28:21.462Z,93.84
2023-01-21T21:30:51.349Z,93.78
2023-01-21T21:33:23.349Z,93.66
2023-01-21T21:35:53.194Z,93.54
2023-01-21T21:38:26.202Z,93.56
2023-01-21T21:41:18.641Z,93.71
2023-01-21T21:43:45.789Z,93.56
2023-01-21T21:46:28.254Z,93.51
2023-01-21T21:48:58.125Z,93.58
2023-01-21T21:51:27.995Z,93.42
2023-01-21T21:53:57.816Z,93.42
2023-01-21T21:56:30.321Z,93.39
2023-01-21T21:59:00.271Z,93.53
2023-01-21T22:01:32.384Z,93.51
2023-01-21T22:04:02.696Z,93.41
2023-01-21T22:06:33.227Z,93.45
2023-01-21T22:09:03.168Z,93.54
2023-01-21T22:11:35.550Z,93.50
2023-01-21T22:14:05.454Z,93.41
2023-01-21T22:16:35.525Z,93.26
2023-01-21T22:19:05.423Z,93.31
2023-01-21T22:21:36.881Z,93.31
2023-01-21T22:24:08.516Z,93.06
2023-01-21T22:26:41.125Z,93.15
2023-01-21T22:29:11.998Z,92.91
2023-01-21T22:31:41.886Z,93.08
2023-01-21T22:34:14.070Z,92.92
2023-01-21T22:36:47.297Z,92.96
2023-01-21T22:39:17.248Z,92.88
2023-01-21T22:41:49.941Z,92.88
2023-01-21T22:44:19.750Z,92.92
2023-01-21T22:46:49.540Z,92.83
2023-01-21T22:49:19.501Z,92.65
2023-01-21T22:51:49.280Z,92.70
2023-01-21T22:54:19.122Z,92.65
2023-01-21T22:56:53.034Z,92.54
2023-01-21T22:59:23.095Z,92.57
2023-01-21T23:01:53.019Z,92.52
2023-01-21T23:04:22.801Z,92.57
2023-01-21T23:06:55.122Z,92.60
2023-01-21T23:09:24.973Z,92.48
2023-01-21T23:11:57.344Z,92.55
2023-01-21T23:14:27.082Z,92.67
2023-01-21T23:16:56.870Z,92.69
2023-01-21T23:19:26.698Z,92.65
2023-01-21T23:21:56.470Z,92.70
2023-01-21T23:24:26.462Z,92.84
2023-01-21T23:26:58.830Z,92.82
2023-01-21T23:29:28.704Z,92.76
2023-01-21T23:32:00.587Z,92.88
2023-01-21T23:34:30.564Z,92.87
2023-01-21T23:37:00.376Z,92.89
2023-01-21T23:39:30.136Z,93.02
2023-01-21T23:42:02.997Z,93.00
2023-01-21T23:44:32.755Z,93.14
2023-01-21T23:47:02.521Z,93.13
2023-01-21T23:49:32.325Z,93.23
2023-01-21T23:52:02.085Z,93.36
2023-01-21T23:54:31.847Z,93.25
2023-01-21T23:57:04.243Z,93.44
2023-01-21T23:59:34.001Z,93.61
